Time;durP1;ratioP1;P1;durP2;ratioP2;P2;SDS_P1;SDS_P2;PMS_P1;PMS_P2;Temp;Humidity;BMP_temperature;BMP_pressure;BME280_temperature;BME280_humidity;BME280_pressure;Samples;Min_cycle;Max_cycle;Signal;HPM_P1;HPM_P2
2022/09/27 00:02:19;;;;;;;3.20;1.10;;;10.50;99.90;;;;;;5076405;28;20175;-92
2022/09/27 00:04:44;;;;;;;1.27;0.70;;;10.60;99.90;;;;;;5075554;28;20176;-93
2022/09/27 00:07:10;;;;;;;5.40;1.30;;;10.60;99.90;;;;;;5075784;28;20195;-93
2022/09/27 00:09:36;;;;;;;2.20;0.90;;;10.60;99.90;;;;;;5075842;28;20218;-93
2022/09/27 00:12:01;;;;;;;4.70;1.00;;;10.50;99.90;;;;;;5075489;28;20170;-93
2022/09/27 00:14:27;;;;;;;3.37;1.00;;;10.50;99.90;;;;;;5077076;28;20629;-93
2022/09/27 00:16:53;;;;;;;3.93;1.20;;;10.50;99.90;;;;;;5075183;28;20195;-94
2022/09/27 00:19:21;;;;;;;6.97;1.50;;;10.50;99.90;;;;;;5075339;28;20206;-93
2022/09/27 00:21:48;;;;;;;3.60;1.10;;;10.50;99.90;;;;;;5075185;28;20175;-94
2022/09/27 00:24:17;;;;;;;3.93;1.30;;;10.50;99.90;;;;;;5074566;28;20194;-93
2022/09/27 00:26:43;;;;;;;4.70;1.33;;;10.50;99.90;;;;;;5075160;28;20206;-93
2022/09/27 00:29:09;;;;;;;8.17;2.20;;;10.50;99.90;;;;;;5075078;28;20556;-93
2022/09/27 00:31:36;;;;;;;13.10;2.97;;;10.50;99.90;;;;;;5075569;28;20589;-92
2022/09/27 00:34:03;;;;;;;12.97;3.63;;;10.50;99.90;;;;;;5075654;28;20171;-92
2022/09/27 00:36:30;;;;;;;11.77;3.57;;;10.50;99.90;;;;;;5075371;28;20195;-93
2022/09/27 00:38:59;;;;;;;8.33;3.17;;;10.50;99.90;;;;;;5075950;28;20178;-92
2022/09/27 00:41:28;;;;;;;11.70;3.90;;;10.50;99.90;;;;;;5075651;28;20185;-92
2022/09/27 00:43:56;;;;;;;9.57;4.23;;;10.60;99.90;;;;;;5077345;28;20273;-92
2022/09/27 00:46:27;;;;;;;16.97;5.57;;;10.60;99.90;;;;;;5074620;28;20195;-92
2022/09/27 00:49:17;;;;;;;13.30;6.17;;;10.50;99.90;;;;;;5074491;28;20575;-92
2022/09/27 00:51:46;;;;;;;13.87;5.60;;;10.60;99.90;;;;;;5074779;28;20209;-92
2022/09/27 00:54:16;;;;;;;16.60;7.20;;;10.60;99.90;;;;;;5076204;28;20178;-93
2022/09/27 00:56:43;;;;;;;17.53;8.37;;;10.60;99.90;;;;;;5074149;28;20191;-92
2022/09/27 00:59:21;;;;;;;23.07;11.17;;;10.60;99.90;;;;;;5075050;28;20544;-92
2022/09/27 01:01:48;;;;;;;23.00;12.63;;;10.60;99.90;;;;;;5075301;28;20161;-92
2022/09/27 01:04:21;;;;;;;26.93;14.47;;;10.60;99.90;;;;;;5076799;28;20663;-93
2022/09/27 01:06:47;;;;;;;17.27;11.90;;;10.60;99.90;;;;;;5074319;28;20278;-94
2022/09/27 01:09:12;;;;;;;22.23;11.63;;;10.60;99.90;;;;;;5074001;28;20776;-92
2022/09/27 01:11:56;;;;;;;15.83;8.53;;;10.60;99.90;;;;;;5074937;28;20266;-93
2022/09/27 01:14:46;;;;;;;12.70;7.27;;;10.60;99.90;;;;;;5073946;28;20720;-93
2022/09/27 01:17:21;;;;;;;9.70;5.17;;;10.60;99.90;;;;;;5075094;28;20273;-92
2022/09/27 01:20:14;;;;;;;6.97;4.33;;;10.60;99.90;;;;;;5074942;28;20750;-93
2022/09/27 01:23:05;;;;;;;9.47;4.70;;;10.60;99.90;;;;;;5075108;28;20175;-93
2022/09/27 01:25:55;;;;;;;9.70;5.30;;;10.60;99.90;;;;;;5074221;28;20232;-92
2022/09/27 01:28:50;;;;;;;15.93;7.20;;;10.60;99.90;;;;;;5074674;28;20210;-92
2022/09/27 01:31:26;;;;;;;17.07;7.43;;;10.60;99.90;;;;;;5074406;28;20644;-93
2022/09/27 01:34:02;;;;;;;14.93;6.83;;;10.60;99.90;;;;;;5073897;28;20171;-93
2022/09/27 01:36:49;;;;;;;8.93;4.60;;;10.60;99.90;;;;;;5073955;28;20236;-93
2022/09/27 01:39:29;;;;;;;7.73;4.10;;;10.60;99.90;;;;;;5073171;28;20664;-92
2022/09/27 01:42:16;;;;;;;15.50;6.83;;;10.50;99.90;;;;;;5073579;28;20549;-93
2022/09/27 01:45:01;;;;;;;10.93;5.80;;;10.60;99.90;;;;;;5074720;28;20534;-92
2022/09/27 01:51:39;;;;;;;13.30;6.83;;;10.60;99.90;;;;;;5074151;28;20165;-93
2022/09/27 01:54:17;;;;;;;16.00;7.47;;;10.60;99.90;;;;;;5097149;22;20217;-95
2022/09/27 01:56:59;;;;;;;14.10;7.07;;;10.60;99.90;;;;;;5101020;28;20139;-96
2022/09/27 02:00:33;;;;;;;16.57;9.97;;;10.50;99.90;;;;;;5099789;28;20154;-96
2022/09/27 02:03:23;;;;;;;15.67;8.43;;;10.30;99.90;;;;;;5041536;28;20144;-96
2022/09/27 02:05:51;;;;;;;14.57;7.90;;;10.60;99.90;;;;;;5093685;22;20642;-75
2022/09/27 02:08:25;;;;;;;12.63;6.50;;;10.50;99.90;;;;;;5088184;28;20175;-75
2022/09/27 02:10:55;;;;;;;13.87;8.97;;;10.50;99.90;;;;;;5088608;28;20646;-78
2022/09/27 02:13:34;;;;;;;14.97;8.57;;;10.50;99.90;;;;;;5075759;28;20709;-75
2022/09/27 02:16:18;;;;;;;16.60;7.70;;;10.50;99.90;;;;;;5071080;28;20548;-75
2022/09/27 02:19:23;;;;;;;14.90;7.57;;;10.50;99.90;;;;;;5060704;28;20695;-75
2022/09/27 02:22:03;;;;;;;15.53;7.77;;;10.50;99.90;;;;;;5053347;28;20190;-75
2022/09/27 02:24:39;;;;;;;15.57;8.63;;;10.50;99.90;;;;;;5055557;28;20553;-77
2022/09/27 02:27:16;;;;;;;11.37;7.13;;;10.50;99.90;;;;;;5052664;28;20625;-76
2022/09/27 02:29:52;;;;;;;17.53;7.57;;;10.40;99.90;;;;;;5051570;28;20740;-75
2022/09/27 02:32:18;;;;;;;15.33;7.63;;;10.50;99.90;;;;;;5058281;28;20228;-75
2022/09/27 02:34:44;;;;;;;12.17;5.50;;;10.50;99.90;;;;;;5061290;28;20191;-75
2022/09/27 02:37:10;;;;;;;11.27;5.63;;;10.50;99.90;;;;;;5053786;28;20187;-76
2022/09/27 02:39:36;;;;;;;13.23;5.83;;;10.50;99.90;;;;;;5071445;28;20260;-75
2022/09/27 02:42:03;;;;;;;12.17;5.80;;;10.50;99.90;;;;;;5071439;28;20253;-76
2022/09/27 02:44:29;;;;;;;11.77;5.77;;;10.50;99.90;;;;;;5052559;28;20196;-75
2022/09/27 02:47:22;;;;;;;6.47;4.10;;;10.50;99.90;;;;;;5069563;28;20186;-75
2022/09/27 02:50:08;;;;;;;12.40;5.50;;;10.50;99.90;;;;;;5060628;28;20321;-75
2022/09/27 02:52:53;;;;;;;12.17;5.97;;;10.50;99.90;;;;;;5052422;28;20669;-75
2022/09/27 02:55:37;;;;;;;12.30;4.27;;;10.50;99.90;;;;;;5065645;28;20190;-75
2022/09/27 02:58:23;;;;;;;10.47;3.60;;;10.50;99.90;;;;;;5063129;28;20167;-75
2022/09/27 03:01:05;;;;;;;8.10;3.07;;;10.60;99.90;;;;;;5052766;28;20230;-77
2022/09/27 03:03:34;;;;;;;8.10;2.57;;;10.40;99.90;;;;;;5057615;28;20178;-75
2022/09/27 03:06:09;;;;;;;7.77;2.67;;;10.40;99.90;;;;;;5060127;28;20192;-75
2022/09/27 03:08:37;;;;;;;10.90;2.67;;;10.40;99.90;;;;;;5055199;28;20182;-75
2022/09/27 03:11:03;;;;;;;9.77;2.67;;;10.40;99.90;;;;;;5056507;28;20176;-75
2022/09/27 03:13:29;;;;;;;6.67;3.37;;;10.30;99.90;;;;;;5056202;28;20245;-74
2022/09/27 03:15:54;;;;;;;11.17;4.47;;;10.30;99.90;;;;;;5071016;28;20321;-75
2022/09/27 03:18:20;;;;;;;10.00;4.83;;;10.30;99.90;;;;;;5056023;28;20179;-75
2022/09/27 03:20:45;;;;;;;11.00;4.80;;;10.20;99.90;;;;;;5056078;28;20179;-75
2022/09/27 03:23:11;;;;;;;15.40;7.40;;;10.30;99.90;;;;;;5065982;28;20182;-75
2022/09/27 03:25:37;;;;;;;19.13;8.43;;;10.30;99.90;;;;;;5075234;28;20329;-75
2022/09/27 03:28:02;;;;;;;16.20;7.63;;;10.30;99.90;;;;;;5065474;28;20179;-75
2022/09/27 03:30:28;;;;;;;9.70;4.60;;;10.30;99.90;;;;;;5056151;28;20191;-76
2022/09/27 03:32:53;;;;;;;5.40;3.53;;;10.30;99.90;;;;;;5056113;28;20184;-75
2022/09/27 03:35:19;;;;;;;6.83;3.27;;;10.20;99.90;;;;;;5063804;28;20288;-75
2022/09/27 03:37:46;;;;;;;7.30;2.37;;;10.20;99.90;;;;;;5055777;28;20186;-75
2022/09/27 03:40:11;;;;;;;6.17;2.10;;;10.20;99.90;;;;;;5056149;28;20233;-75
2022/09/27 03:42:38;;;;;;;5.27;2.27;;;10.20;99.90;;;;;;5054751;28;20183;-77
2022/09/27 03:45:03;;;;;;;4.00;1.70;;;10.10;99.90;;;;;;5056047;28;20219;-75
2022/09/27 03:47:29;;;;;;;6.27;1.83;;;10.10;99.90;;;;;;5058840;28;20210;-75
2022/09/27 03:49:54;;;;;;;2.73;1.70;;;10.00;99.90;;;;;;5076021;28;20213;-75
2022/09/27 03:52:20;;;;;;;3.57;1.50;;;10.00;99.90;;;;;;5062202;28;20180;-75
2022/09/27 03:54:46;;;;;;;2.37;1.27;;;10.00;99.90;;;;;;5068613;28;20199;-75
2022/09/27 03:57:12;;;;;;;4.03;1.63;;;9.90;99.90;;;;;;5054401;28;20176;-76
2022/09/27 03:59:38;;;;;;;5.30;1.57;;;9.90;99.90;;;;;;5054707;28;20172;-75
2022/09/27 04:02:03;;;;;;;6.83;1.47;;;9.90;99.90;;;;;;5055324;28;20669;-75
2022/09/27 04:04:29;;;;;;;4.57;1.50;;;9.90;99.90;;;;;;5055769;28;20238;-74
2022/09/27 04:06:55;;;;;;;2.43;1.23;;;9.80;99.90;;;;;;5055173;28;20270;-75
2022/09/27 04:09:21;;;;;;;5.23;1.30;;;9.80;99.90;;;;;;5055194;28;20212;-75
2022/09/27 04:11:47;;;;;;;3.27;1.53;;;9.80;99.90;;;;;;5061535;28;20175;-75
2022/09/27 04:14:13;;;;;;;2.40;1.27;;;9.80;99.90;;;;;;5072680;28;20328;-75
2022/09/27 04:16:41;;;;;;;5.33;1.63;;;9.80;99.90;;;;;;5075673;28;20203;-75
2022/09/27 04:19:07;;;;;;;3.93;1.47;;;9.70;99.90;;;;;;5064736;28;20186;-75
2022/09/27 04:21:34;;;;;;;2.57;1.40;;;9.60;99.90;;;;;;5060633;28;20254;-75
2022/09/27 04:23:59;;;;;;;2.13;1.30;;;9.50;99.90;;;;;;5064390;28;20195;-76
2022/09/27 04:26:25;;;;;;;4.90;1.60;;;9.60;99.90;;;;;;5056423;28;20205;-76
2022/09/27 04:28:52;;;;;;;2.07;1.20;;;9.60;99.90;;;;;;5058619;28;20202;-77
2022/09/27 04:31:18;;;;;;;8.37;1.40;;;9.60;99.90;;;;;;5104761;22;20565;-82
2022/09/27 04:33:43;;;;;;;7.97;1.50;;;9.60;99.90;;;;;;5085272;28;20179;-82
2022/09/27 04:36:27;;;;;;;4.93;1.50;;;9.60;99.90;;;;;;5090908;28;20178;-82
2022/09/27 04:38:59;;;;;;;4.70;1.40;;;9.50;99.90;;;;;;5113677;28;20178;-81
2022/09/27 04:41:26;;;;;;;3.77;1.57;;;9.50;99.90;;;;;;5093550;28;20586;-81
2022/09/27 04:43:52;;;;;;;3.90;1.20;;;9.50;99.90;;;;;;5094547;28;20179;-82
2022/09/27 04:46:18;;;;;;;9.37;1.20;;;9.50;99.90;;;;;;5100144;28;20181;-81
2022/09/27 04:48:44;;;;;;;3.57;1.10;;;9.50;99.90;;;;;;5106833;28;20177;-80
2022/09/27 04:51:16;;;;;;;4.87;1.37;;;9.50;99.90;;;;;;5096749;28;20211;-81
2022/09/27 04:53:42;;;;;;;5.30;1.10;;;9.40;99.90;;;;;;5081469;28;20190;-80
2022/09/27 04:56:07;;;;;;;2.43;1.20;;;9.50;99.90;;;;;;5078635;28;20179;-80
2022/09/27 04:58:33;;;;;;;1.93;0.97;;;9.40;99.90;;;;;;5080971;28;20191;-80
2022/09/27 05:01:01;;;;;;;5.73;1.10;;;9.40;99.90;;;;;;5081504;28;20214;-80
2022/09/27 05:03:27;;;;;;;4.60;1.37;;;9.40;99.90;;;;;;5078433;28;20237;-79
2022/09/27 05:05:53;;;;;;;6.50;1.20;;;9.40;99.90;;;;;;5067920;28;20182;-79
2022/09/27 05:08:19;;;;;;;3.77;1.03;;;9.40;99.90;;;;;;5077929;28;20179;-81
2022/09/27 05:10:46;;;;;;;1.80;0.70;;;9.40;99.90;;;;;;5081876;28;20203;-79
2022/09/27 05:13:12;;;;;;;2.70;1.00;;;9.30;99.90;;;;;;5081033;28;20540;-79
2022/09/27 05:15:38;;;;;;;5.13;0.97;;;9.40;99.90;;;;;;5079029;28;20174;-80
2022/09/27 05:18:07;;;;;;;3.60;0.90;;;9.40;99.90;;;;;;5080125;28;20254;-80
2022/09/27 05:20:33;;;;;;;4.97;1.20;;;9.40;99.90;;;;;;5079709;28;20205;-79
2022/09/27 05:22:59;;;;;;;4.47;1.30;;;9.40;99.90;;;;;;5080930;28;20175;-79
2022/09/27 05:25:25;;;;;;;4.80;1.10;;;9.40;99.90;;;;;;5079702;28;20179;-79
2022/09/27 05:27:51;;;;;;;3.67;1.10;;;9.40;99.90;;;;;;5081077;28;20174;-78
2022/09/27 05:30:17;;;;;;;3.27;1.07;;;9.40;99.90;;;;;;5077194;28;20305;-79
2022/09/27 05:32:44;;;;;;;2.23;0.90;;;9.40;99.90;;;;;;5079337;28;20204;-79
2022/09/27 05:35:10;;;;;;;6.10;1.10;;;9.30;99.90;;;;;;5077523;28;20185;-79
2022/09/27 05:37:35;;;;;;;3.97;1.10;;;9.40;99.90;;;;;;5080385;28;20171;-80
2022/09/27 05:40:01;;;;;;;2.53;1.20;;;9.50;99.90;;;;;;5079547;28;20286;-80
2022/09/27 05:42:27;;;;;;;4.33;1.03;;;9.40;99.90;;;;;;5080425;28;20174;-79
2022/09/27 05:44:52;;;;;;;3.33;0.90;;;9.30;99.90;;;;;;5079216;28;20187;-79
2022/09/27 05:47:18;;;;;;;2.90;0.90;;;9.40;99.90;;;;;;5079226;28;20202;-79
2022/09/27 05:49:43;;;;;;;6.13;1.30;;;9.40;99.90;;;;;;5079345;28;20708;-79
2022/09/27 05:52:09;;;;;;;5.53;1.13;;;9.40;99.90;;;;;;5078620;28;20629;-79
2022/09/27 05:54:35;;;;;;;4.73;0.97;;;9.40;99.90;;;;;;5077115;28;20182;-79
2022/09/27 05:57:00;;;;;;;5.33;1.07;;;9.40;99.90;;;;;;5079495;28;20163;-79
2022/09/27 05:59:26;;;;;;;1.47;0.70;;;9.40;99.90;;;;;;5077493;28;20290;-80
2022/09/27 06:01:52;;;;;;;3.63;1.20;;;9.40;99.90;;;;;;5079025;28;20179;-79
2022/09/27 06:04:19;;;;;;;3.07;0.80;;;9.40;99.90;;;;;;5077874;28;20171;-79
2022/09/27 06:06:44;;;;;;;4.17;0.93;;;9.40;99.90;;;;;;5078568;28;20181;-79
2022/09/27 06:09:11;;;;;;;3.00;0.80;;;9.40;99.90;;;;;;5078502;28;20282;-79
2022/09/27 06:11:37;;;;;;;2.83;0.70;;;9.40;99.90;;;;;;5078579;28;20190;-79
2022/09/27 06:14:03;;;;;;;4.53;0.90;;;9.50;99.90;;;;;;5077953;28;20171;-79
2022/09/27 06:16:28;;;;;;;2.90;1.13;;;9.50;99.90;;;;;;5077931;28;20216;-79
2022/09/27 06:18:54;;;;;;;4.17;1.33;;;9.50;99.90;;;;;;5077399;28;20266;-79
2022/09/27 06:21:20;;;;;;;5.90;1.30;;;9.50;99.90;;;;;;5078794;28;20607;-79
2022/09/27 06:23:46;;;;;;;2.77;1.33;;;9.50;99.90;;;;;;5078723;28;20527;-79
2022/09/27 06:26:11;;;;;;;3.80;1.30;;;9.50;99.90;;;;;;5076789;28;20179;-80
2022/09/27 06:28:37;;;;;;;2.57;1.10;;;9.60;99.90;;;;;;5077911;28;20181;-80
2022/09/27 06:31:06;;;;;;;4.90;1.53;;;9.60;99.90;;;;;;5076988;28;20574;-81
2022/09/27 06:33:33;;;;;;;3.47;0.83;;;9.60;99.90;;;;;;5076281;28;20178;-80
2022/09/27 06:36:06;;;;;;;8.23;0.97;;;9.60;99.90;;;;;;5078356;28;20576;-79
2022/09/27 06:38:32;;;;;;;4.33;1.03;;;9.60;99.90;;;;;;5076359;28;20174;-79
2022/09/27 06:41:01;;;;;;;1.23;0.73;;;9.70;99.90;;;;;;5077773;28;20201;-79
2022/09/27 06:43:26;;;;;;;1.80;0.80;;;9.70;99.90;;;;;;5077218;28;20182;-78
2022/09/27 06:45:52;;;;;;;1.97;1.10;;;9.70;99.90;;;;;;5075505;28;20183;-79
2022/09/27 06:48:18;;;;;;;2.53;0.73;;;9.70;99.90;;;;;;5075263;28;20179;-79
2022/09/27 06:50:45;;;;;;;2.00;0.70;;;9.60;99.90;;;;;;5075797;28;20298;-78
2022/09/27 06:53:13;;;;;;;4.70;0.93;;;9.60;99.90;;;;;;5076329;28;20186;-79
2022/09/27 06:55:39;;;;;;;2.73;0.90;;;9.60;99.90;;;;;;5075445;28;20174;-79
2022/09/27 07:00:53;;;;;;;3.30;0.80;;;9.70;99.90;;;;;;5075580;28;20257;-78
2022/09/27 07:03:21;;;;;;;6.23;1.20;;;9.70;99.90;;;;;;5074235;28;20179;-79
2022/09/27 07:05:55;;;;;;;2.13;0.73;;;9.70;99.90;;;;;;5076067;28;20175;-79
2022/09/27 07:08:21;;;;;;;1.87;0.77;;;9.70;99.90;;;;;;5077090;28;20191;-79
2022/09/27 07:10:47;;;;;;;3.23;0.80;;;9.70;99.90;;;;;;5076856;28;20267;-79
2022/09/27 07:13:12;;;;;;;6.20;1.07;;;9.70;99.90;;;;;;5077079;28;20175;-79
2022/09/27 07:15:40;;;;;;;4.07;0.87;;;9.80;99.90;;;;;;5077851;28;20171;-78
2022/09/27 07:18:07;;;;;;;1.73;0.87;;;9.80;99.90;;;;;;5078136;28;20171;-79
2022/09/27 07:20:37;;;;;;;1.23;0.70;;;9.80;99.90;;;;;;5077856;28;20203;-79
2022/09/27 07:23:04;;;;;;;3.07;0.90;;;9.80;99.90;;;;;;5075864;28;20598;-78
2022/09/27 07:25:30;;;;;;;2.80;1.00;;;9.80;99.90;;;;;;5076362;28;20659;-78
2022/09/27 07:28:00;;;;;;;2.10;0.80;;;9.80;99.90;;;;;;5077026;28;20210;-79
2022/09/27 07:30:26;;;;;;;2.83;1.00;;;9.80;99.90;;;;;;5075910;28;20315;-79
2022/09/27 07:32:57;;;;;;;1.20;0.70;;;9.80;99.90;;;;;;5078215;28;20210;-79
2022/09/27 07:35:23;;;;;;;3.23;0.97;;;9.90;99.90;;;;;;5076687;28;20179;-79
2022/09/27 07:37:49;;;;;;;3.67;0.97;;;9.90;99.90;;;;;;5077425;28;20285;-79
2022/09/27 07:40:14;;;;;;;3.13;1.00;;;9.90;99.90;;;;;;5077836;28;20711;-78
2022/09/27 07:42:40;;;;;;;2.07;0.87;;;9.90;99.90;;;;;;5077542;28;20181;-78
2022/09/27 07:45:07;;;;;;;3.23;0.90;;;9.90;99.90;;;;;;5093434;28;20238;-78
2022/09/27 07:47:33;;;;;;;1.83;0.80;;;9.90;99.90;;;;;;5095486;28;20156;-79
2022/09/27 07:49:59;;;;;;;5.53;0.90;;;10.00;99.90;;;;;;5079149;28;20408;-80
2022/09/27 07:52:24;;;;;;;2.50;0.67;;;10.00;99.90;;;;;;5075959;28;20261;-79
2022/09/27 07:54:50;;;;;;;2.77;0.70;;;10.00;99.90;;;;;;5078329;28;20220;-79
2022/09/27 07:57:20;;;;;;;2.33;0.80;;;10.00;99.90;;;;;;5077422;28;20252;-79
2022/09/27 07:59:45;;;;;;;9.37;1.60;;;10.10;99.90;;;;;;5078981;28;20265;-79
2022/09/27 08:02:15;;;;;;;2.30;0.50;;;10.10;99.90;;;;;;5078292;28;20179;-79
2022/09/27 08:04:47;;;;;;;2.30;0.80;;;10.10;99.90;;;;;;5076209;28;20174;-80
2022/09/27 08:07:13;;;;;;;0.97;0.70;;;10.10;99.90;;;;;;5077585;28;20212;-79
2022/09/27 08:09:39;;;;;;;2.07;0.70;;;10.10;99.90;;;;;;5078571;28;20218;-79
2022/09/27 08:12:04;;;;;;;1.20;0.70;;;10.10;99.90;;;;;;5078007;28;20179;-79
2022/09/27 08:14:30;;;;;;;1.97;0.77;;;10.20;99.90;;;;;;5076299;28;20238;-79
2022/09/27 08:16:56;;;;;;;4.30;1.10;;;10.10;99.90;;;;;;5076802;28;20171;-79
2022/09/27 08:19:21;;;;;;;1.40;0.83;;;10.20;99.90;;;;;;5078256;28;20182;-79
2022/09/27 08:21:47;;;;;;;3.33;0.70;;;10.20;99.90;;;;;;5078068;28;20595;-80
2022/09/27 08:24:13;;;;;;;4.43;1.10;;;10.30;99.90;;;;;;5081389;28;20250;-79
2022/09/27 08:26:39;;;;;;;2.27;0.57;;;10.30;99.90;;;;;;5097417;28;20179;-79
2022/09/27 08:29:05;;;;;;;1.57;0.57;;;10.30;99.90;;;;;;5098307;28;20233;-81
2022/09/27 08:31:30;;;;;;;0.50;0.50;;;10.40;99.90;;;;;;5087477;28;20697;-79
2022/09/27 08:33:56;;;;;;;1.30;0.50;;;10.30;99.90;;;;;;5077177;28;20187;-77
2022/09/27 08:36:23;;;;;;;2.87;0.70;;;10.40;99.90;;;;;;5076443;28;20179;-78
2022/09/27 08:38:53;;;;;;;2.03;0.50;;;10.40;99.90;;;;;;5077219;28;20171;-79
2022/09/27 08:41:37;;;;;;;1.83;0.50;;;10.40;99.90;;;;;;5076660;28;20209;-79
2022/09/27 08:44:53;;;;;;;1.67;0.83;;;10.50;99.90;;;;;;5076880;28;20202;-79
2022/09/27 08:47:36;;;;;;;2.07;0.60;;;10.50;99.90;;;;;;5016110;28;20223;-80
2022/09/27 08:50:14;;;;;;;1.30;0.63;;;10.40;99.90;;;;;;5078709;28;20206;-80
2022/09/27 08:52:54;;;;;;;1.20;0.60;;;10.40;99.90;;;;;;5075723;28;20186;-79
2022/09/27 08:55:36;;;;;;;1.57;0.70;;;10.30;99.90;;;;;;5078569;28;20170;-79
2022/09/27 08:58:10;;;;;;;2.50;0.70;;;10.30;99.90;;;;;;5077203;28;20730;-79
2022/09/27 09:00:35;;;;;;;0.73;0.63;;;10.40;99.90;;;;;;5078217;28;20186;-79
2022/09/27 09:03:01;;;;;;;1.83;0.70;;;10.30;99.90;;;;;;5076253;28;20186;-79
2022/09/27 09:05:34;;;;;;;0.53;0.50;;;10.30;99.90;;;;;;5078036;28;20228;-79
2022/09/27 09:08:10;;;;;;;0.73;0.60;;;10.30;99.90;;;;;;5078285;28;20339;-79
2022/09/27 09:13:45;;;;;;;1.57;0.70;;;10.30;99.90;;;;;;5076837;28;20213;-79
2022/09/27 09:16:32;;;;;;;3.80;0.83;;;10.30;99.90;;;;;;5076903;28;20234;-79
2022/09/27 09:19:40;;;;;;;1.43;0.73;;;10.40;99.90;;;;;;5075159;28;20163;-79
2022/09/27 09:22:30;;;;;;;2.10;0.70;;;10.40;99.90;;;;;;5027160;28;20178;-79
2022/09/27 09:24:58;;;;;;;4.63;0.80;;;10.40;99.90;;;;;;5075684;28;20193;-79
2022/09/27 09:27:40;;;;;;;1.20;0.70;;;10.30;99.90;;;;;;5075607;28;20175;-79
2022/09/27 09:30:19;;;;;;;2.20;0.90;;;10.40;99.90;;;;;;5075708;28;20303;-79
2022/09/27 09:33:42;;;;;;;3.40;0.90;;;10.40;99.90;;;;;;5074175;28;20236;-80
2022/09/27 09:36:07;;;;;;;2.67;1.00;;;10.50;99.90;;;;;;5016338;28;20172;-80
2022/09/27 09:38:43;;;;;;;2.57;1.10;;;10.60;99.90;;;;;;5074553;28;20250;-80
2022/09/27 09:41:27;;;;;;;2.30;1.20;;;10.70;99.90;;;;;;5078234;28;20243;-80
2022/09/27 09:43:56;;;;;;;3.53;1.20;;;10.80;99.90;;;;;;5077829;28;20183;-80
2022/09/27 09:46:48;;;;;;;2.57;1.40;;;10.80;99.90;;;;;;5077761;28;20163;-80
2022/09/27 09:49:52;;;;;;;1.97;1.20;;;10.80;99.90;;;;;;5077408;28;20210;-80
2022/09/27 09:52:21;;;;;;;3.07;1.60;;;10.90;99.90;;;;;;5015381;28;20540;-81
2022/09/27 09:55:01;;;;;;;2.13;1.60;;;10.80;99.90;;;;;;5068364;28;20544;-79
2022/09/27 09:57:53;;;;;;;2.03;1.50;;;10.90;99.90;;;;;;5079342;28;20559;-80
2022/09/27 10:00:19;;;;;;;2.60;1.43;;;10.90;99.90;;;;;;5049835;28;20613;-80
2022/09/27 10:02:46;;;;;;;2.27;1.77;;;10.90;99.90;;;;;;5076842;28;20175;-80
2022/09/27 10:05:16;;;;;;;3.10;1.77;;;10.80;99.90;;;;;;5079228;28;20163;-80
2022/09/27 10:07:42;;;;;;;3.00;1.33;;;11.00;99.90;;;;;;5079146;28;20167;-80
2022/09/27 10:10:12;;;;;;;2.33;1.53;;;11.00;99.90;;;;;;5077686;28;20582;-80
2022/09/27 10:12:38;;;;;;;3.47;1.80;;;11.10;99.90;;;;;;5078844;28;20166;-81
2022/09/27 10:15:05;;;;;;;3.63;1.50;;;11.10;99.90;;;;;;5079118;28;20227;-80
2022/09/27 10:17:41;;;;;;;2.27;1.33;;;11.20;99.90;;;;;;5076984;28;20686;-80
2022/09/27 10:20:16;;;;;;;2.90;1.10;;;11.20;99.90;;;;;;5076645;28;20277;-80
2022/09/27 10:22:53;;;;;;;1.40;1.13;;;11.20;99.90;;;;;;5074860;28;20544;-79
2022/09/27 10:25:19;;;;;;;1.70;1.00;;;11.20;99.90;;;;;;5074470;28;20186;-80
2022/09/27 10:27:47;;;;;;;3.00;1.00;;;11.20;99.90;;;;;;5074776;28;20179;-80
2022/09/27 10:30:27;;;;;;;1.97;1.03;;;11.30;99.90;;;;;;5076037;28;20281;-80
2022/09/27 10:32:57;;;;;;;2.73;1.20;;;11.30;99.90;;;;;;5071081;22;20218;-93
2022/09/27 10:35:28;;;;;;;6.27;1.50;;;11.30;99.90;;;;;;5074829;28;20199;-94
2022/09/27 10:38:33;;;;;;;2.50;1.00;;;11.90;99.90;;;;;;5076104;28;20672;-93
2022/09/27 10:41:35;;;;;;;5.10;0.97;;;11.30;99.90;;;;;;5076524;28;20179;-94
2022/09/27 10:44:19;;;;;;;3.10;1.07;;;11.50;99.90;;;;;;5076899;28;20301;-94
2022/09/27 10:46:48;;;;;;;4.07;1.10;;;11.40;99.90;;;;;;5080821;28;20178;-94
2022/09/27 10:49:18;;;;;;;1.77;0.80;;;11.40;99.90;;;;;;5079757;28;20676;-94
2022/09/27 10:51:46;;;;;;;2.80;1.07;;;11.50;99.90;;;;;;5079640;28;20174;-94
2022/09/27 10:54:20;;;;;;;3.10;0.90;;;11.30;99.90;;;;;;5079142;28;20202;-94
2022/09/27 10:56:58;;;;;;;9.43;1.47;;;11.40;99.90;;;;;;5078432;28;20590;-94
2022/09/27 10:59:30;;;;;;;1.40;0.97;;;11.40;99.90;;;;;;5084293;28;20171;-94
2022/09/27 11:05:12;;;;;;;1.63;1.07;;;11.40;99.90;;;;;;5071066;28;20252;-76
2022/09/27 11:07:49;;;;;;;1.27;1.10;;;11.50;99.90;;;;;;5072820;28;20171;-76
2022/09/27 11:10:32;;;;;;;1.93;1.20;;;11.50;99.90;;;;;;5071635;28;20194;-76
2022/09/27 11:13:14;;;;;;;3.47;1.50;;;11.40;99.90;;;;;;5072890;28;20186;-76
2022/09/27 11:16:00;;;;;;;1.60;1.20;;;11.40;99.90;;;;;;5071273;28;20163;-76
2022/09/27 11:18:33;;;;;;;2.50;1.40;;;11.50;99.90;;;;;;5071338;28;20167;-76
2022/09/27 11:21:04;;;;;;;4.80;2.00;;;11.40;99.90;;;;;;5054182;28;20550;-76
2022/09/27 11:23:50;;;;;;;2.77;1.63;;;11.50;99.90;;;;;;5052485;28;20160;-76
2022/09/27 11:26:51;;;;;;;2.17;1.33;;;11.60;99.90;;;;;;5052353;28;20676;-76
2022/09/27 11:29:44;;;;;;;4.07;1.60;;;11.60;99.90;;;;;;5055423;28;20191;-76
2022/09/27 11:32:16;;;;;;;4.23;1.87;;;11.60;99.90;;;;;;5066650;28;20215;-76
2022/09/27 11:35:12;;;;;;;2.07;1.77;;;11.60;99.90;;;;;;5076333;28;20203;-76
2022/09/27 11:38:10;;;;;;;1.80;1.30;;;11.70;99.90;;;;;;5074754;28;20171;-76
2022/09/27 11:40:39;;;;;;;2.80;1.63;;;11.70;99.90;;;;;;5074717;28;20205;-76
2022/09/27 11:43:04;;;;;;;2.50;1.77;;;11.70;99.90;;;;;;5074669;28;20305;-76
2022/09/27 11:45:36;;;;;;;2.10;1.40;;;11.80;99.90;;;;;;5075832;28;20199;-76
2022/09/27 11:48:35;;;;;;;2.20;1.67;;;12.00;99.90;;;;;;5076070;28;20163;-76
2022/09/27 11:51:03;;;;;;;2.77;1.60;;;12.00;99.90;;;;;;5075709;28;20182;-76
2022/09/27 11:53:47;;;;;;;1.80;1.50;;;12.10;99.90;;;;;;5062424;28;20186;-76
2022/09/27 11:57:06;;;;;;;1.33;1.13;;;12.10;99.90;;;;;;5054670;28;20192;-76
2022/09/27 11:59:53;;;;;;;1.90;1.17;;;12.00;99.90;;;;;;5053463;28;20194;-76
2022/09/27 12:02:29;;;;;;;2.77;1.60;;;12.10;99.90;;;;;;5056150;28;20293;-77
2022/09/27 12:05:14;;;;;;;1.97;1.30;;;12.10;99.90;;;;;;5074139;28;20174;-76
2022/09/27 12:08:14;;;;;;;4.93;1.57;;;12.10;99.90;;;;;;5074402;28;20545;-76
2022/09/27 12:10:45;;;;;;;3.47;1.20;;;12.10;99.90;;;;;;5076049;28;20191;-76
2022/09/27 12:13:14;;;;;;;1.47;1.30;;;12.20;99.90;;;;;;5077194;28;20206;-76
2022/09/27 12:15:43;;;;;;;1.57;1.20;;;12.10;99.90;;;;;;5075371;28;20245;-76
2022/09/27 12:18:21;;;;;;;1.40;1.10;;;12.00;99.90;;;;;;5075615;28;20617;-76
2022/09/27 12:20:48;;;;;;;1.27;1.17;;;12.00;99.90;;;;;;5075598;28;20495;-76
2022/09/27 12:23:22;;;;;;;2.10;1.80;;;11.90;99.90;;;;;;5073692;28;20606;-76
2022/09/27 12:25:52;;;;;;;2.83;2.13;;;11.80;99.90;;;;;;5074081;28;20174;-76
2022/09/27 12:28:42;;;;;;;5.63;2.60;;;11.80;99.90;;;;;;5076625;28;20182;-76
2022/09/27 12:31:30;;;;;;;10.40;3.07;;;11.80;99.90;;;;;;5078010;28;20202;-75
2022/09/27 12:34:20;;;;;;;4.27;2.93;;;11.80;99.90;;;;;;5063070;28;20225;-76
2022/09/27 12:37:20;;;;;;;2.87;1.87;;;11.80;99.90;;;;;;5060890;28;20198;-76
2022/09/27 12:40:21;;;;;;;5.43;2.80;;;11.60;99.90;;;;;;5035223;28;20190;-75
2022/09/27 12:43:05;;;;;;;3.87;2.40;;;11.30;99.90;;;;;;5051410;28;20277;-75
2022/09/27 12:45:46;;;;;;;3.90;2.53;;;11.10;99.90;;;;;;5078107;28;20158;-76
2022/09/27 12:48:49;;;;;;;3.10;2.80;;;11.00;99.90;;;;;;5075036;28;20170;-76
2022/09/27 12:51:17;;;;;;;4.83;2.67;;;10.90;99.90;;;;;;5077226;28;20187;-75
2022/09/27 12:54:08;;;;;;;8.00;4.30;;;10.90;99.90;;;;;;5068666;28;20180;-75
2022/09/27 12:56:54;;;;;;;6.53;3.13;;;10.80;99.90;;;;;;5056340;28;20179;-76
2022/09/27 12:59:52;;;;;;;3.87;2.17;;;10.80;99.90;;;;;;5054476;28;20184;-76
2022/09/27 13:02:41;;;;;;;2.90;1.40;;;10.70;99.90;;;;;;5053055;28;20214;-77
2022/09/27 13:05:36;;;;;;;2.27;1.20;;;10.80;99.90;;;;;;5052826;28;20657;-76
2022/09/27 13:08:33;;;;;;;1.17;0.97;;;10.80;99.90;;;;;;5052926;28;20202;-76
2022/09/27 13:11:22;;;;;;;1.77;1.40;;;10.90;99.90;;;;;;5048226;28;20222;-76
2022/09/27 13:13:53;;;;;;;2.23;1.20;;;11.00;99.90;;;;;;5066673;28;20209;-76
2022/09/27 13:16:18;;;;;;;0.87;0.70;;;11.10;99.90;;;;;;5072903;28;20175;-76
2022/09/27 13:18:50;;;;;;;3.50;1.13;;;11.20;99.90;;;;;;5072893;28;20175;-76
2022/09/27 13:21:50;;;;;;;2.30;1.27;;;11.10;99.90;;;;;;5073931;28;20191;-76
2022/09/27 13:24:38;;;;;;;5.37;2.10;;;11.20;99.90;;;;;;5072320;28;20254;-76
2022/09/27 13:27:23;;;;;;;5.07;2.67;;;11.40;99.90;;;;;;5072631;28;20179;-76
2022/09/27 13:29:50;;;;;;;5.93;2.70;;;11.50;99.90;;;;;;5066370;28;20214;-76
2022/09/27 13:32:23;;;;;;;4.17;2.20;;;11.50;99.90;;;;;;5071737;28;20203;-76
2022/09/27 13:34:55;;;;;;;3.60;2.30;;;11.50;99.90;;;;;;5074167;28;20156;-76